Time,TemperatureF,DewpointF,PressureIn,WindDirection,WindDirectionDegrees,WindSpeedMPH,WindSpeedGustMPH,Humidity,HourlyPrecipIn,Conditions,Clouds,dailyrainin,SoftwareType,DateUTC
2017-11-22 00:04:00,38.3,33.3,30.16,ESE,114,2.0,5.0,82,0.00,,CLR,0.10,VWS V15.00,2017-11-22 07:04:00,
2017-11-22 00:24:00,38.9,33.3,30.15,NE,48,2.0,4.0,80,0.00,,CLR,0.00,VWS V15.00,2017-11-22 07:24:00,
2017-11-22 00:44:00,39.0,33.4,30.14,NNE,28,1.0,4.0,80,0.00,,CLR,0.00,VWS V15.00,2017-11-22 07:44:00,
2017-11-22 00:54:00,39.2,33.6,30.14,NNE,29,3.0,4.0,80,0.00,,CLR,0.00,VWS V15.00,2017-11-22 07:54:00,
2017-11-22 01:04:00,39.4,33.8,30.13,South,185,2.0,4.0,80,0.00,,CLR,0.00,VWS V15.00,2017-11-22 08:04:00,
2017-11-22 01:14:00,39.7,33.7,30.14,NE,44,1.0,6.0,79,0.00,,CLR,0.00,VWS V15.00,2017-11-22 08:14:00,
2017-11-22 01:24:00,39.8,33.8,30.13,East,84,2.0,4.0,79,0.00,,CLR,0.00,VWS V15.00,2017-11-22 08:24:00,
2017-11-22 01:34:00,40.8,34.5,30.13,NE,44,2.0,4.0,78,0.00,,CLR,0.00,VWS V15.00,2017-11-22 08:34:00,
2017-11-22 01:44:00,41.9,34.9,30.13,SW,217,4.0,6.0,76,0.00,,CLR,0.00,VWS V15.00,2017-11-22 08:44:00,
2017-11-22 01:54:00,43.6,35.2,30.12,WSW,246,5.0,7.0,72,0.00,,CLR,0.00,VWS V15.00,2017-11-22 08:54:00,
2017-11-22 02:04:00,45.2,35.3,30.12,SW,221,7.0,8.0,68,0.00,,CLR,0.00,VWS V15.00,2017-11-22 09:04:00,
2017-11-22 02:14:00,46.5,35.0,30.13,WSW,242,6.0,9.0,64,0.00,,CLR,0.00,VWS V15.00,2017-11-22 09:14:00,
2017-11-22 02:24:00,47.3,35.0,30.13,South,177,5.0,9.0,62,0.00,,CLR,0.00,VWS V15.00,2017-11-22 09:24:00,
2017-11-22 02:34:00,47.6,34.4,30.12,South,169,2.0,11.0,60,0.00,,CLR,0.00,VWS V15.00,2017-11-22 09:34:00,
2017-11-22 02:44:00,47.4,34.6,30.13,SSW,212,1.0,7.0,61,0.00,,CLR,0.00,VWS V15.00,2017-11-22 09:44:00,
2017-11-22 03:04:00,46.9,34.6,30.12,WSW,257,4.0,7.0,62,0.00,,CLR,0.00,VWS V15.00,2017-11-22 10:04:00,
2017-11-22 03:14:00,47.0,34.7,30.12,West,277,1.0,8.0,62,0.00,,CLR,0.00,VWS V15.00,2017-11-22 10:14:00,
2017-11-22 03:34:00,46.8,34.9,30.11,SW,231,2.0,7.0,63,0.00,,CLR,0.00,VWS V15.00,2017-11-22 10:34:00,
2017-11-22 03:44:00,46.8,34.9,30.12,SW,227,5.0,8.0,63,0.00,,CLR,0.00,VWS V15.00,2017-11-22 10:44:00,
2017-11-22 03:54:00,46.8,35.3,30.12,SW,219,3.0,7.0,64,0.00,,CLR,0.00,VWS V15.00,2017-11-22 10:54:00,
2017-11-22 04:04:00,46.7,35.6,30.11,WSW,258,0.0,6.0,65,0.00,,CLR,0.00,VWS V15.00,2017-11-22 11:04:00,
2017-11-22 04:14:00,46.5,35.4,30.10,West,268,1.0,5.0,65,0.00,,CLR,0.00,VWS V15.00,2017-11-22 11:14:00,
2017-11-22 04:34:00,46.2,35.5,30.10,South,190,2.0,4.0,66,0.00,,CLR,0.00,VWS V15.00,2017-11-22 11:34:00,
2017-11-22 04:44:00,46.5,35.8,30.09,West,266,2.0,8.0,66,0.00,,CLR,0.00,VWS V15.00,2017-11-22 11:44:00,
2017-11-22 05:04:00,48.3,37.9,30.08,WSW,256,12.0,16.0,67,0.00,,CLR,0.00,VWS V15.00,2017-11-22 12:04:00,
2017-11-22 05:14:00,52.6,38.7,30.08,WSW,256,12.0,18.0,59,0.00,,CLR,0.00,VWS V15.00,2017-11-22 12:14:00,
2017-11-22 05:24:00,54.0,38.2,30.08,West,259,22.0,22.0,55,0.00,,CLR,0.00,VWS V15.00,2017-11-22 12:24:00,
2017-11-22 05:34:00,54.0,37.8,30.07,WSW,249,15.0,24.0,54,0.00,,CLR,0.00,VWS V15.00,2017-11-22 12:34:00,
2017-11-22 05:54:00,54.6,38.3,30.08,West,280,12.0,21.0,54,0.00,,CLR,0.00,VWS V15.00,2017-11-22 12:54:00,
2017-11-22 06:04:00,55.6,38.8,30.07,West,260,12.0,25.0,53,0.00,,CLR,0.00,VWS V15.00,2017-11-22 13:04:00,
2017-11-22 06:14:00,55.9,38.5,30.07,West,281,17.0,23.0,52,0.00,,CLR,0.00,VWS V15.00,2017-11-22 13:14:00,
2017-11-22 06:44:00,56.3,38.9,30.08,West,266,12.0,26.0,52,0.00,,CLR,0.00,VWS V15.00,2017-11-22 13:44:00,
2017-11-22 07:04:00,57.0,38.6,30.08,West,267,9.0,20.0,50,0.00,,CLR,0.00,VWS V15.00,2017-11-22 14:04:00,
2017-11-22 07:24:00,57.3,38.3,30.07,SSW,213,10.0,25.0,49,0.00,,CLR,0.00,VWS V15.00,2017-11-22 14:24:00,
2017-11-22 07:34:00,57.4,37.9,30.07,West,271,12.0,26.0,48,0.00,,CLR,0.00,VWS V15.00,2017-11-22 14:34:00,
2017-11-22 08:14:00,58.5,38.9,30.09,West,281,15.0,27.0,48,0.00,,CLR,0.00,VWS V15.00,2017-11-22 15:14:00,
2017-11-22 08:24:00,59.0,38.8,30.09,West,260,11.0,34.0,47,0.00,,CLR,0.00,VWS V15.00,2017-11-22 15:24:00,
2017-11-22 08:34:00,59.2,39.0,30.09,WSW,239,20.0,29.0,47,0.00,,CLR,0.00,VWS V15.00,2017-11-22 15:34:00,
2017-11-22 08:44:00,59.5,39.3,30.09,West,264,11.0,29.0,47,0.00,,CLR,0.00,VWS V15.00,2017-11-22 15:44:00,
2017-11-22 09:04:00,60.0,38.6,30.10,WSW,257,11.0,25.0,45,0.00,,CLR,0.00,VWS V15.00,2017-11-22 16:04:00,
2017-11-22 09:44:00,58.6,39.0,30.11,NW,304,13.0,27.0,48,0.00,,CLR,0.00,VWS V15.00,2017-11-22 16:44:00,
2017-11-22 09:54:00,58.4,39.3,30.11,WSW,246,16.0,20.0,49,0.00,,CLR,0.00,VWS V15.00,2017-11-22 16:54:00,
2017-11-22 10:04:00,58.4,39.8,30.11,WSW,249,19.0,28.0,50,0.00,,CLR,0.00,VWS V15.00,2017-11-22 17:04:00,
2017-11-22 10:14:00,58.2,40.2,30.11,WSW,252,13.0,23.0,51,0.00,,CLR,0.00,VWS V15.00,2017-11-22 17:14:00,
2017-11-22 10:44:00,59.2,40.6,30.10,WSW,258,17.0,22.0,50,0.00,,CLR,0.00,VWS V15.00,2017-11-22 17:44:00,
2017-11-22 11:14:00,60.2,41.0,30.09,WSW,254,17.0,26.0,49,0.00,,CLR,0.00,VWS V15.00,2017-11-22 18:14:00,
2017-11-22 11:24:00,60.5,41.3,30.09,West,268,9.0,26.0,49,0.00,,CLR,0.00,VWS V15.00,2017-11-22 18:24:00,
2017-11-22 11:34:00,60.6,41.4,30.08,WSW,253,12.0,20.0,49,0.00,,CLR,0.00,VWS V15.00,2017-11-22 18:34:00,
2017-11-22 11:54:00,61.7,41.8,30.08,West,269,12.0,23.0,48,0.00,,CLR,0.00,VWS V15.00,2017-11-22 18:54:00,
2017-11-22 12:04:00,62.0,41.6,30.07,WSW,257,16.0,22.0,47,0.00,,CLR,0.00,VWS V15.00,2017-11-22 19:04:00,
2017-11-22 12:14:00,61.4,41.6,30.07,WNW,285,10.0,23.0,48,0.00,,CLR,0.00,VWS V15.00,2017-11-22 19:14:00,
2017-11-22 12:24:00,61.0,41.7,30.06,WSW,252,7.0,21.0,49,0.00,,CLR,0.00,VWS V15.00,2017-11-22 19:24:00,
2017-11-22 12:34:00,61.1,41.8,30.06,WNW,284,11.0,17.0,49,0.00,,CLR,0.00,VWS V15.00,2017-11-22 19:34:00,